createdAt,value
2018-05-13T00:00:06.800Z,13.53
2018-05-13T00:02:35.090Z,17.27
2018-05-13T00:05:06.880Z,16.37
2018-05-13T00:07:35.330Z,14.73
2018-05-13T00:10:07.220Z,15.83
2018-05-13T00:12:35.663Z,16.17
2018-05-13T00:15:05.651Z,13.83
2018-05-13T00:17:34.091Z,13.07
2018-05-13T00:20:05.466Z,13.50
2018-05-13T00:22:34.112Z,13.97
2018-05-13T00:25:09.051Z,17.90
2018-05-13T00:27:37.326Z,13.87
2018-05-13T00:30:05.814Z,12.63
2018-05-13T00:32:34.088Z,12.67
2018-05-13T00:35:05.472Z,12.80
2018-05-13T00:37:33.751Z,15.60
2018-05-13T00:40:05.108Z,13.87
2018-05-13T00:42:33.853Z,13.93
2018-05-13T00:45:05.839Z,13.20
2018-05-13T00:47:34.123Z,13.20
2018-05-13T00:50:09.138Z,9.57
2018-05-13T00:52:37.710Z,12.90
2018-05-13T00:55:06.196Z,12.60
2018-05-13T00:57:34.473Z,11.43
2018-05-13T01:00:05.794Z,9.90
2018-05-13T01:02:35.211Z,12.77
2018-05-13T01:05:07.172Z,10.17
2018-05-13T01:07:35.442Z,10.27
2018-05-13T01:10:07.270Z,9.93
2018-05-13T01:12:35.539Z,9.50
2018-05-13T01:15:07.685Z,10.13
2018-05-13T01:17:35.955Z,10.83
2018-05-13T01:20:05.800Z,9.63
2018-05-13T01:22:34.081Z,10.93
2018-05-13T01:25:05.981Z,10.37
2018-05-13T01:27:34.257Z,10.13
2018-05-13T01:30:05.711Z,9.43
2018-05-13T01:32:33.980Z,9.80
2018-05-13T01:35:05.344Z,9.17
2018-05-13T01:37:33.607Z,8.70
2018-05-13T01:40:08.740Z,9.30
2018-05-13T01:42:37.007Z,7.63
2018-05-13T01:45:06.156Z,9.40
2018-05-13T01:47:34.424Z,9.83
2018-05-13T01:50:06.437Z,9.13
2018-05-13T01:52:34.787Z,11.90
2018-05-13T01:55:06.849Z,14.77
2018-05-13T01:57:35.127Z,10.60
2018-05-13T02:00:07.041Z,10.13
2018-05-13T02:02:35.626Z,10.97
2018-05-13T02:05:07.372Z,10.87
2018-05-13T02:07:35.653Z,11.93
2018-05-13T02:10:07.549Z,11.83
2018-05-13T02:12:35.984Z,11.40
2018-05-13T02:15:07.445Z,12.13
2018-05-13T02:17:35.856Z,11.80
2018-05-13T02:20:05.887Z,11.50
2018-05-13T02:22:34.172Z,12.17
2018-05-13T02:25:09.216Z,15.03
2018-05-13T02:27:37.699Z,13.87
2018-05-13T02:30:06.008Z,11.73
2018-05-13T02:32:34.762Z,11.80
2018-05-13T02:35:06.470Z,11.63
2018-05-13T02:37:35.439Z,11.50
2018-05-13T02:40:06.748Z,12.87
2018-05-13T02:42:35.292Z,11.90
2018-05-13T02:45:07.254Z,11.60
2018-05-13T02:47:35.548Z,12.00
2018-05-13T02:50:07.594Z,11.93
2018-05-13T02:52:36.244Z,12.00
2018-05-13T02:55:06.271Z,15.00
2018-05-13T02:57:34.590Z,14.53
2018-05-13T03:00:06.510Z,13.33
2018-05-13T03:02:34.783Z,11.93
2018-05-13T03:05:06.002Z,12.93
2018-05-13T03:07:34.271Z,12.13
2018-05-13T03:10:09.321Z,10.50
2018-05-13T03:12:37.582Z,9.03
2018-05-13T03:15:06.015Z,9.50
2018-05-13T03:17:34.287Z,6.57
2018-05-13T03:20:09.508Z,8.47
2018-05-13T03:22:37.783Z,6.63
2018-05-13T03:25:06.030Z,7.03
2018-05-13T03:27:34.325Z,8.90
2018-05-13T03:30:06.240Z,11.57
2018-05-13T03:32:34.536Z,10.13
2018-05-13T03:35:06.538Z,8.93
2018-05-13T03:37:34.853Z,8.70
2018-05-13T03:40:06.005Z,9.23
2018-05-13T03:42:34.559Z,8.03
2018-05-13T03:45:06.573Z,9.97
2018-05-13T03:47:34.848Z,9.53
2018-05-13T03:50:05.815Z,8.10
2018-05-13T03:52:34.090Z,8.37
2018-05-13T03:55:08.004Z,9.03
2018-05-13T03:57:36.279Z,9.00
2018-05-13T04:00:06.092Z,8.83
2018-05-13T04:02:34.609Z,8.23
2018-05-13T04:05:06.731Z,9.07
2018-05-13T04:07:46.758Z,9.37
2018-05-13T04:10:26.636Z,9.50
2018-05-13T04:13:06.651Z,10.03
2018-05-13T04:15:34.930Z,9.70
2018-05-13T04:18:03.343Z,11.90
2018-05-13T04:20:31.631Z,10.87
2018-05-13T04:22:59.922Z,10.73
2018-05-13T04:25:28.244Z,11.50
2018-05-13T04:27:56.551Z,10.93
2018-05-13T04:30:24.851Z,10.50
2018-05-13T04:32:53.124Z,10.63
2018-05-13T04:35:21.412Z,11.47
2018-05-13T04:37:49.922Z,11.10
2018-05-13T04:40:18.231Z,10.70
2018-05-13T04:42:46.528Z,9.80
2018-05-13T04:45:14.800Z,9.57
2018-05-13T04:47:43.723Z,8.60
2018-05-13T04:50:11.987Z,8.50
2018-05-13T04:52:40.545Z,8.23
2018-05-13T04:55:08.820Z,8.13
2018-05-13T04:57:37.110Z,8.10
2018-05-13T05:00:06.724Z,8.00
2018-05-13T05:02:35.011Z,7.30
2018-05-13T05:05:07.143Z,7.70
2018-05-13T05:07:35.589Z,7.93
2018-05-13T05:10:07.291Z,6.90
2018-05-13T05:12:35.584Z,7.20
2018-05-13T05:15:08.331Z,7.90
2018-05-13T05:17:36.614Z,7.40
2018-05-13T05:20:05.935Z,8.20
2018-05-13T05:22:34.222Z,7.40
2018-05-13T05:25:05.751Z,7.07
2018-05-13T05:27:34.039Z,7.27
2018-05-13T05:30:05.482Z,7.90
2018-05-13T05:32:33.765Z,7.87
2018-05-13T05:35:07.539Z,7.70
2018-05-13T05:37:35.820Z,8.27
2018-05-13T05:40:07.343Z,12.30
2018-05-13T05:42:35.959Z,8.57
2018-05-13T05:45:05.945Z,7.97
2018-05-13T05:47:34.375Z,8.90
2018-05-13T05:50:05.794Z,10.57
2018-05-13T05:52:34.088Z,14.47
2018-05-13T05:55:06.257Z,11.30
2018-05-13T05:57:34.550Z,9.83
2018-05-13T06:00:08.568Z,8.97
2018-05-13T06:02:37.209Z,10.33
2018-05-13T06:05:06.099Z,8.87
2018-05-13T06:07:34.363Z,9.03
2018-05-13T06:10:09.652Z,9.47
2018-05-13T06:12:37.961Z,9.70
2018-05-13T06:15:06.391Z,8.70
2018-05-13T06:17:34.659Z,8.80
2018-05-13T06:20:06.320Z,8.47
2018-05-13T06:22:34.604Z,10.43
2018-05-13T06:25:06.323Z,8.70
2018-05-13T06:27:34.518Z,8.43
2018-05-13T06:30:06.228Z,9.00
2018-05-13T06:32:34.487Z,9.00
2018-05-13T06:35:06.463Z,9.60
2018-05-13T06:37:35.721Z,8.53
2018-05-13T06:40:07.268Z,8.13
2018-05-13T06:42:35.727Z,8.10
2018-05-13T06:45:07.576Z,8.13
2018-05-13T06:47:35.923Z,9.97
2018-05-13T06:50:07.800Z,8.77
2018-05-13T06:52:36.072Z,8.90
2018-05-13T06:55:07.380Z,8.80
2018-05-13T06:57:35.775Z,9.60
2018-05-13T07:00:07.903Z,10.97
2018-05-13T07:02:36.188Z,10.93
2018-05-13T07:05:06.257Z,11.20
2018-05-13T07:07:34.791Z,11.17
2018-05-13T07:10:06.732Z,10.03
2018-05-13T07:12:35.228Z,12.57
2018-05-13T07:15:07.303Z,10.10
2018-05-13T07:17:35.776Z,10.43
2018-05-13T07:20:08.000Z,10.80
2018-05-13T07:22:36.419Z,11.23
2018-05-13T07:25:07.967Z,12.07
2018-05-13T07:27:36.247Z,11.93
2018-05-13T07:30:06.191Z,12.27
2018-05-13T07:32:34.684Z,13.03
2018-05-13T07:35:06.047Z,12.20
2018-05-13T07:37:34.320Z,13.97
2018-05-13T07:40:07.762Z,14.03
2018-05-13T07:42:36.783Z,13.67
2018-05-13T07:45:06.580Z,13.73
2018-05-13T07:47:34.864Z,14.30
2018-05-13T07:50:06.120Z,12.57
2018-05-13T07:52:34.778Z,14.83
2018-05-13T07:55:06.335Z,15.27
2018-05-13T07:57:34.621Z,13.80
2018-05-13T08:00:06.084Z,15.17
2018-05-13T08:02:34.371Z,16.10
2018-05-13T08:05:07.779Z,17.13
2018-05-13T08:07:36.266Z,18.70
2018-05-13T08:10:06.301Z,21.40
2018-05-13T08:12:34.575Z,22.30
2018-05-13T08:15:06.097Z,20.53
2018-05-13T08:17:34.649Z,27.77
2018-05-13T08:20:08.700Z,25.33
2018-05-13T08:22:37.044Z,27.67
2018-05-13T08:25:06.483Z,72.83
2018-05-13T08:27:34.924Z,34.70
2018-05-13T08:30:06.844Z,35.50
2018-05-13T08:32:35.120Z,40.10
2018-05-13T08:35:07.191Z,40.93
2018-05-13T08:37:35.569Z,35.73
2018-05-13T08:40:07.398Z,39.23
2018-05-13T08:42:35.683Z,40.97
2018-05-13T08:45:06.935Z,40.07
2018-05-13T08:47:35.203Z,45.00
2018-05-13T08:50:06.200Z,39.53
2018-05-13T08:52:34.475Z,38.60
2018-05-13T08:55:06.440Z,38.70
2018-05-13T08:57:34.824Z,40.50
2018-05-13T09:00:06.839Z,39.80
2018-05-13T09:02:35.144Z,41.60
2018-05-13T09:05:06.412Z,45.13
2018-05-13T09:07:34.791Z,55.20
2018-05-13T09:10:06.787Z,54.60
2018-05-13T09:12:35.088Z,43.80
2018-05-13T09:15:06.124Z,41.57
2018-05-13T09:17:35.299Z,40.43
2018-05-13T09:20:07.031Z,38.80
2018-05-13T09:22:35.485Z,41.47
2018-05-13T09:25:07.283Z,38.67
2018-05-13T09:27:35.726Z,38.03
2018-05-13T09:30:06.932Z,39.90
2018-05-13T09:32:35.211Z,44.03
2018-05-13T09:35:07.321Z,45.27
2018-05-13T09:37:35.740Z,42.57
2018-05-13T09:40:07.435Z,40.97
2018-05-13T09:42:36.159Z,41.27
2018-05-13T09:45:06.315Z,42.73
2018-05-13T09:47:34.730Z,41.33
2018-05-13T09:50:06.185Z,39.63
2018-05-13T09:52:34.491Z,39.20
2018-05-13T09:55:05.973Z,41.77
2018-05-13T09:57:34.320Z,41.70
2018-05-13T10:00:06.049Z,42.77
2018-05-13T10:02:34.409Z,43.50
2018-05-13T10:05:06.735Z,41.43
2018-05-13T10:07:35.881Z,46.50
2018-05-13T10:10:07.200Z,46.57
2018-05-13T10:12:35.529Z,47.63
2018-05-13T10:15:07.561Z,48.20
2018-05-13T10:17:36.064Z,56.13
2018-05-13T10:20:07.923Z,50.40
2018-05-13T10:22:36.219Z,49.23
2018-05-13T10:25:06.376Z,55.00
2018-05-13T10:27:34.733Z,54.73
2018-05-13T10:30:06.064Z,49.57
2018-05-13T10:32:34.403Z,51.33
2018-05-13T10:35:07.130Z,54.60
2018-05-13T10:37:35.436Z,52.37
2018-05-13T10:40:07.048Z,54.10
2018-05-13T10:42:35.367Z,54.10
2018-05-13T10:45:07.241Z,47.40
2018-05-13T10:47:35.536Z,47.63
2018-05-13T10:50:07.567Z,49.93
2018-05-13T10:52:35.867Z,47.03
2018-05-13T10:55:07.982Z,48.47
2018-05-13T10:57:36.287Z,46.63
2018-05-13T11:00:06.404Z,48.20
2018-05-13T11:02:34.715Z,49.20
2018-05-13T11:05:06.637Z,53.87
2018-05-13T11:07:34.956Z,50.83
2018-05-13T11:10:07.099Z,46.50
2018-05-13T11:12:35.413Z,50.47
2018-05-13T11:15:07.331Z,50.37
2018-05-13T11:17:35.625Z,51.83
2018-05-13T11:20:07.759Z,49.53
2018-05-13T11:22:36.075Z,54.10
2018-05-13T11:25:08.133Z,52.33
2018-05-13T11:27:36.431Z,54.37
2018-05-13T11:30:06.463Z,51.87
2018-05-13T11:32:35.183Z,50.43
2018-05-13T11:35:07.000Z,52.70
2018-05-13T11:37:35.328Z,49.60
2018-05-13T11:40:07.044Z,52.57
2018-05-13T11:42:35.568Z,46.70
2018-05-13T11:45:07.676Z,46.10
2018-05-13T11:47:36.010Z,53.60
2018-05-13T11:50:07.592Z,51.27
2018-05-13T11:52:35.867Z,47.03
2018-05-13T11:55:07.766Z,49.70
2018-05-13T11:57:36.076Z,50.40
2018-05-13T12:00:08.012Z,48.80
2018-05-13T12:02:36.328Z,72.10
2018-05-13T12:05:06.288Z,48.67
2018-05-13T12:07:34.591Z,51.83
2018-05-13T12:10:08.468Z,59.17
2018-05-13T12:12:36.775Z,66.63
2018-05-13T12:15:06.456Z,74.33
2018-05-13T12:17:34.688Z,63.73
2018-05-13T12:20:06.197Z,53.60
2018-05-13T12:22:34.470Z,52.90
2018-05-13T12:25:05.763Z,52.27
2018-05-13T12:27:34.031Z,51.90
2018-05-13T12:30:08.675Z,51.87
2018-05-13T12:32:36.972Z,49.43
2018-05-13T12:35:06.675Z,51.50
2018-05-13T12:37:34.972Z,50.10
2018-05-13T12:40:07.027Z,52.50
2018-05-13T12:42:35.625Z,68.53
2018-05-13T12:45:07.359Z,55.03
2018-05-13T12:47:35.641Z,54.73
2018-05-13T12:50:07.941Z,48.57
2018-05-13T12:52:36.567Z,48.30
2018-05-13T12:55:08.048Z,45.33
2018-05-13T12:57:36.353Z,59.37
2018-05-13T13:00:06.512Z,109.10
2018-05-13T13:02:34.979Z,46.83
2018-05-13T13:05:07.012Z,65.17
2018-05-13T13:07:35.370Z,151.30
2018-05-13T13:10:06.535Z,119.93
2018-05-13T13:12:34.828Z,116.90
2018-05-13T13:15:06.728Z,59.83
2018-05-13T13:17:34.941Z,44.83
2018-05-13T13:20:09.167Z,44.90
2018-05-13T13:22:37.302Z,44.17
2018-05-13T13:25:07.372Z,48.73
2018-05-13T13:27:35.892Z,53.43
2018-05-13T13:30:08.175Z,48.30
2018-05-13T13:32:36.471Z,49.10
2018-05-13T13:35:08.394Z,58.33
2018-05-13T13:37:36.686Z,50.07
2018-05-13T13:40:06.815Z,52.33
2018-05-13T13:42:41.605Z,58.60
2018-05-13T13:45:10.250Z,90.67
2018-05-13T13:47:38.509Z,49.60
2018-05-13T13:50:06.826Z,51.77
2018-05-13T13:52:35.260Z,47.67
2018-05-13T13:55:06.755Z,54.13
2018-05-13T13:57:35.047Z,49.93
2018-05-13T14:00:06.675Z,53.07
2018-05-13T14:02:34.973Z,51.77
2018-05-13T14:05:07.270Z,46.53
2018-05-13T14:07:35.557Z,48.23
2018-05-13T14:10:06.436Z,49.53
2018-05-13T14:12:35.204Z,49.63
2018-05-13T14:15:07.334Z,44.07
2018-05-13T14:17:35.620Z,48.73
2018-05-13T14:20:06.424Z,42.77
2018-05-13T14:22:34.636Z,38.10
2018-05-13T14:25:09.968Z,44.90
2018-05-13T14:27:38.232Z,39.37
2018-05-13T14:30:06.561Z,40.57
2018-05-13T14:32:34.843Z,40.57
2018-05-13T14:35:07.079Z,42.93
2018-05-13T14:37:35.363Z,45.90
2018-05-13T14:40:07.281Z,47.73
2018-05-13T14:42:35.558Z,45.60
2018-05-13T14:45:07.593Z,40.60
2018-05-13T14:47:35.827Z,43.87
2018-05-13T14:50:07.543Z,41.20
2018-05-13T14:52:35.829Z,37.27
2018-05-13T14:55:08.107Z,41.43
2018-05-13T14:57:36.390Z,40.40
2018-05-13T15:00:06.381Z,36.97
2018-05-13T15:02:34.686Z,40.43
2018-05-13T15:05:06.376Z,38.13
2018-05-13T15:07:34.648Z,35.23
2018-05-13T15:10:07.920Z,36.03
2018-05-13T15:12:36.209Z,39.07
2018-05-13T15:15:07.867Z,36.60
2018-05-13T15:17:36.148Z,37.27
2018-05-13T15:20:07.504Z,34.90
2018-05-13T15:22:35.980Z,35.00
2018-05-13T15:25:07.376Z,53.10
2018-05-13T15:27:35.680Z,49.83
2018-05-13T15:30:07.340Z,46.27
2018-05-13T15:32:35.655Z,80.73
2018-05-13T15:35:07.467Z,57.60
2018-05-13T15:37:35.776Z,39.97
2018-05-13T15:40:06.694Z,39.73
2018-05-13T15:42:35.058Z,37.87
2018-05-13T15:45:09.067Z,49.73
2018-05-13T15:47:38.181Z,37.53
2018-05-13T15:50:06.479Z,36.33
2018-05-13T15:52:34.823Z,34.33
2018-05-13T15:55:10.074Z,37.20
2018-05-13T15:57:38.299Z,39.57
2018-05-13T16:00:06.583Z,39.60
2018-05-13T16:02:34.874Z,32.53
2018-05-13T16:05:06.306Z,55.47
2018-05-13T16:07:34.725Z,37.43
2018-05-13T16:10:06.317Z,40.80
2018-05-13T16:12:34.620Z,38.63
2018-05-13T16:15:06.086Z,39.93
2018-05-13T16:17:34.580Z,48.80
2018-05-13T16:20:05.887Z,42.43
2018-05-13T16:22:34.204Z,52.33
2018-05-13T16:25:09.024Z,46.23
2018-05-13T16:27:37.542Z,38.57
2018-05-13T16:30:07.243Z,41.90
2018-05-13T16:32:35.521Z,41.90
2018-05-13T16:35:06.927Z,40.37
2018-05-13T16:37:35.239Z,43.90
2018-05-13T16:40:06.478Z,47.57
2018-05-13T16:42:34.787Z,45.83
2018-05-13T16:45:06.602Z,53.03
2018-05-13T16:47:34.973Z,49.57
2018-05-13T16:50:06.459Z,47.77
2018-05-13T16:52:34.799Z,48.33
2018-05-13T16:55:06.781Z,50.47
2018-05-13T16:57:35.214Z,50.10
2018-05-13T17:00:07.259Z,49.10
2018-05-13T17:02:35.557Z,58.00
2018-05-13T17:05:06.839Z,78.37
2018-05-13T17:07:35.141Z,55.47
2018-05-13T17:10:07.500Z,55.63
2018-05-13T17:12:35.860Z,75.53
2018-05-13T17:15:05.992Z,55.77
2018-05-13T17:17:34.299Z,51.33
2018-05-13T17:20:06.232Z,48.93
2018-05-13T17:22:34.600Z,50.17
2018-05-13T17:25:06.443Z,58.67
2018-05-13T17:27:34.771Z,69.30
2018-05-13T17:30:06.692Z,69.57
2018-05-13T17:32:34.988Z,61.70
2018-05-13T17:35:07.064Z,60.33
2018-05-13T17:37:35.491Z,57.60
2018-05-13T17:40:07.402Z,56.10
2018-05-13T17:42:35.704Z,55.43
2018-05-13T17:45:05.532Z,64.23
2018-05-13T17:47:33.963Z,63.33
2018-05-13T17:50:05.342Z,70.63
2018-05-13T17:52:33.659Z,64.77
2018-05-13T17:55:04.975Z,61.17
2018-05-13T17:57:33.454Z,64.87
2018-05-13T18:00:06.737Z,60.40
2018-05-13T18:05:44.938Z,60.77
2018-05-13T18:08:13.264Z,64.67
2018-05-13T18:10:41.541Z,69.23
2018-05-13T18:13:09.909Z,72.90
2018-05-13T18:15:38.164Z,68.27
2018-05-13T18:18:06.468Z,87.53
2018-05-13T18:20:34.759Z,72.67
2018-05-13T18:23:03.100Z,86.67
2018-05-13T18:25:31.542Z,64.73
2018-05-13T18:28:00.023Z,83.37
2018-05-13T18:30:28.333Z,89.43
2018-05-13T18:32:56.616Z,79.87
2018-05-13T18:35:24.921Z,80.50
2018-05-13T18:37:53.200Z,76.10
2018-05-13T18:40:21.515Z,86.43
2018-05-13T18:42:49.810Z,91.03
2018-05-13T18:45:18.115Z,81.93
2018-05-13T18:47:46.726Z,81.33
2018-05-13T18:50:15.066Z,79.57
2018-05-13T18:52:43.348Z,90.57
2018-05-13T18:55:11.673Z,92.73
2018-05-13T18:57:39.966Z,105.00
2018-05-13T19:00:08.266Z,107.40
2018-05-13T19:02:37.072Z,107.53
2018-05-13T19:05:07.028Z,99.60
2018-05-13T19:07:35.332Z,104.93
2018-05-13T19:10:07.276Z,114.67
2018-05-13T19:12:35.576Z,101.73
2018-05-13T19:15:07.537Z,111.87
2018-05-13T19:17:35.836Z,119.00
2018-05-13T19:20:07.220Z,106.90
2018-05-13T19:22:35.521Z,119.63
2018-05-13T19:25:07.773Z,127.67
2018-05-13T19:27:36.075Z,105.37
2018-05-13T19:30:08.017Z,116.27
2018-05-13T19:32:36.300Z,97.80
2018-05-13T19:35:07.652Z,88.03
2018-05-13T19:37:35.928Z,96.40
2018-05-13T19:40:07.967Z,96.00
2018-05-13T19:42:36.262Z,95.80
2018-05-13T19:45:06.116Z,84.97
2018-05-13T19:47:34.533Z,90.43
2018-05-13T19:50:05.975Z,91.43
2018-05-13T19:52:34.300Z,97.80
2018-05-13T19:55:05.854Z,88.20
2018-05-13T19:57:34.135Z,70.47
2018-05-13T20:00:06.457Z,77.27
2018-05-13T20:02:34.770Z,77.30
2018-05-13T20:05:06.164Z,98.20
2018-05-13T20:07:34.536Z,75.70
2018-05-13T20:10:06.885Z,67.17
2018-05-13T20:12:35.163Z,68.00
2018-05-13T20:15:06.196Z,67.27
2018-05-13T20:17:34.488Z,74.20
2018-05-13T20:20:06.703Z,70.97
2018-05-13T20:25:34.749Z,73.13
2018-05-13T20:28:03.297Z,80.43
2018-05-13T20:30:31.636Z,90.90
2018-05-13T20:33:00.032Z,86.10
2018-05-13T20:35:28.363Z,84.73
2018-05-13T20:37:56.646Z,89.10
2018-05-13T20:40:24.935Z,133.97
2018-05-13T20:42:53.263Z,139.33
2018-05-13T20:45:21.556Z,114.83
2018-05-13T20:47:50.095Z,103.37
2018-05-13T20:50:18.405Z,109.13
2018-05-13T20:52:46.716Z,116.47
2018-05-13T20:55:15.116Z,130.03
2018-05-13T20:57:43.521Z,143.37
2018-05-13T21:00:11.752Z,123.57
2018-05-13T21:02:40.055Z,140.27
2018-05-13T21:05:08.380Z,136.43
2018-05-13T21:07:36.688Z,141.33
2018-05-13T21:10:06.528Z,139.83
2018-05-13T21:12:34.875Z,144.30
2018-05-13T21:15:07.543Z,155.77
2018-05-13T21:17:35.862Z,151.60
2018-05-13T21:20:07.513Z,147.33
2018-05-13T21:22:35.994Z,145.53
2018-05-13T21:25:07.904Z,142.60
2018-05-13T21:27:36.223Z,139.80
2018-05-13T21:30:09.443Z,131.17
2018-05-13T21:32:37.752Z,123.33
2018-05-13T21:35:06.656Z,126.93
2018-05-13T21:37:34.971Z,122.23
2018-05-13T21:40:09.170Z,118.83
2018-05-13T21:42:37.977Z,114.43
2018-05-13T21:45:06.540Z,114.03
2018-05-13T21:47:34.831Z,110.97
2018-05-13T21:50:06.269Z,96.17
2018-05-13T21:52:34.575Z,109.33
2018-05-13T21:55:06.088Z,107.93
2018-05-13T21:57:34.588Z,108.00
2018-05-13T22:00:06.193Z,101.53
2018-05-13T22:02:34.526Z,102.80
2018-05-13T22:05:06.076Z,268.00
2018-05-13T22:07:34.401Z,92.23
2018-05-13T22:10:05.687Z,118.03
2018-05-13T22:12:33.986Z,91.73
2018-05-13T22:15:08.808Z,83.13
2018-05-13T22:17:37.111Z,89.70
2018-05-13T22:20:06.441Z,88.73
2018-05-13T22:22:34.863Z,75.97
2018-05-13T22:25:08.799Z,116.77
2018-05-13T22:27:37.090Z,90.07
2018-05-13T22:30:06.745Z,94.33
2018-05-13T22:32:35.146Z,84.67
2018-05-13T22:35:07.357Z,101.50
2018-05-13T22:37:35.666Z,94.03
2018-05-13T22:40:07.745Z,91.17
2018-05-13T22:42:36.052Z,100.17
2018-05-13T22:45:07.467Z,91.13
2018-05-13T22:47:36.036Z,85.30
2018-05-13T22:50:08.206Z,83.40
2018-05-13T22:52:36.484Z,76.83
2018-05-13T22:55:06.459Z,77.20
2018-05-13T22:57:35.376Z,82.07
2018-05-13T23:00:06.518Z,97.57
2018-05-13T23:02:34.832Z,77.10
2018-05-13T23:05:09.892Z,96.20
2018-05-13T23:07:38.265Z,75.40
2018-05-13T23:10:06.690Z,81.63
2018-05-13T23:12:35.000Z,84.50
2018-05-13T23:15:07.892Z,79.13
2018-05-13T23:17:36.183Z,74.40
2018-05-13T23:20:07.419Z,86.63
2018-05-13T23:22:35.736Z,122.43
2018-05-13T23:25:06.441Z,123.60
2018-05-13T23:27:34.750Z,102.10
2018-05-13T23:30:09.767Z,113.17
2018-05-13T23:32:38.077Z,107.00
2018-05-13T23:35:06.486Z,124.30
2018-05-13T23:37:34.799Z,134.67
2018-05-13T23:40:06.376Z,128.57
2018-05-13T23:42:34.688Z,117.13
2018-05-13T23:45:06.165Z,125.77
2018-05-13T23:47:34.484Z,125.93
2018-05-13T23:50:06.714Z,127.57
2018-05-13T23:52:35.011Z,125.40
2018-05-13T23:55:06.530Z,136.50
2018-05-13T23:57:34.834Z,135.30
